createdAt,value
2023-01-19T00:02:57.315Z,3.43
2023-01-19T00:06:05.165Z,3.45
2023-01-19T00:09:07.884Z,3.51
2023-01-19T00:12:10.756Z,3.48
2023-01-19T00:15:13.370Z,3.56
2023-01-19T00:18:16.201Z,3.58
2023-01-19T00:21:19.461Z,3.61
2023-01-19T00:24:22.310Z,3.71
2023-01-19T00:27:25.052Z,3.79
2023-01-19T00:30:29.624Z,3.98
2023-01-19T00:33:34.588Z,4.06
2023-01-19T00:36:37.453Z,3.93
2023-01-19T00:39:40.392Z,3.79
2023-01-19T00:42:44.991Z,3.70
2023-01-19T00:45:47.620Z,3.53
2023-01-19T00:48:50.391Z,3.46
2023-01-19T00:51:52.921Z,3.32
2023-01-19T00:54:55.853Z,3.23
2023-01-19T00:57:58.569Z,3.19
2023-01-19T01:01:03.809Z,3.10
2023-01-19T01:04:06.915Z,3.07
2023-01-19T01:07:09.729Z,3.07
2023-01-19T01:10:22.017Z,3.06
2023-01-19T01:13:27.346Z,2.93
2023-01-19T01:16:30.476Z,2.95
2023-01-19T01:19:33.323Z,2.95
2023-01-19T01:22:35.855Z,2.91
2023-01-19T01:25:38.775Z,2.82
2023-01-19T01:28:41.375Z,2.89
2023-01-19T01:31:44.344Z,2.79
2023-01-19T01:34:47.130Z,2.80
2023-01-19T01:37:49.947Z,2.79
2023-01-19T01:40:52.637Z,2.70
2023-01-19T01:43:58.590Z,2.66
2023-01-19T01:47:01.379Z,2.67
2023-01-19T01:50:11.930Z,2.65
2023-01-19T01:53:15.278Z,2.69
2023-01-19T01:56:21.145Z,2.60
2023-01-19T01:59:28.392Z,2.63
2023-01-19T02:02:51.207Z,2.62
2023-01-19T02:05:57.724Z,2.67
2023-01-19T02:09:25.880Z,2.57
2023-01-19T02:12:47.720Z,2.59
2023-01-19T02:15:56.032Z,2.59
2023-01-19T02:18:58.891Z,2.58
2023-01-19T02:22:13.160Z,2.61
2023-01-19T02:25:17.110Z,2.59
2023-01-19T02:28:20.089Z,2.53
2023-01-19T02:31:23.455Z,2.59
2023-01-19T02:34:26.515Z,2.51
2023-01-19T02:37:31.213Z,2.53
2023-01-19T02:40:33.981Z,2.50
2023-01-19T02:43:37.577Z,2.48
2023-01-19T02:46:40.763Z,2.49
2023-01-19T02:49:43.617Z,2.52
2023-01-19T02:52:46.183Z,2.51
2023-01-19T02:55:58.089Z,2.44
2023-01-19T02:59:03.688Z,2.45
2023-01-19T03:02:26.425Z,2.39
2023-01-19T03:05:47.764Z,2.41
2023-01-19T03:09:01.892Z,2.48
2023-01-19T03:12:10.169Z,2.46
2023-01-19T03:15:23.753Z,2.42
2023-01-19T03:18:28.287Z,2.42
2023-01-19T03:21:34.317Z,2.43
2023-01-19T03:24:40.243Z,2.41
2023-01-19T03:27:43.728Z,2.45
2023-01-19T03:31:07.003Z,2.43
2023-01-19T03:34:12.058Z,2.40
2023-01-19T03:37:16.058Z,2.46
2023-01-19T03:40:20.194Z,2.51
2023-01-19T03:43:23.665Z,2.45
2023-01-19T03:46:27.342Z,2.37
2023-01-19T03:49:33.677Z,2.46
2023-01-19T03:52:36.607Z,2.51
2023-01-19T03:55:41.925Z,2.48
2023-01-19T03:58:45.371Z,2.44
2023-01-19T04:01:48.863Z,2.56
2023-01-19T04:04:51.837Z,2.50
2023-01-19T04:07:54.755Z,2.38
2023-01-19T04:10:58.528Z,2.40
2023-01-19T04:14:01.734Z,2.36
2023-01-19T04:17:04.655Z,2.42
2023-01-19T04:20:07.982Z,2.37
2023-01-19T04:23:11.202Z,2.30
2023-01-19T04:26:13.939Z,2.33
2023-01-19T04:29:17.347Z,2.30
2023-01-19T04:32:19.861Z,2.28
2023-01-19T04:35:23.758Z,2.35
2023-01-19T04:38:26.787Z,2.31
2023-01-19T04:41:31.097Z,2.38
2023-01-19T04:44:33.680Z,2.49
2023-01-19T04:47:37.013Z,2.44
2023-01-19T04:50:39.655Z,2.35
2023-01-19T04:53:42.560Z,2.41
2023-01-19T04:56:45.184Z,2.39
2023-01-19T04:59:48.088Z,2.43
2023-01-19T05:02:51.202Z,2.38
2023-01-19T05:05:54.271Z,2.35
2023-01-19T05:08:56.807Z,2.31
2023-01-19T05:12:00.033Z,2.35
2023-01-19T05:15:02.586Z,2.31
2023-01-19T05:18:05.491Z,2.23
2023-01-19T05:21:08.194Z,2.21
2023-01-19T05:24:11.119Z,2.20
2023-01-19T05:27:13.635Z,2.16
2023-01-19T05:30:16.918Z,2.16
2023-01-19T05:33:19.401Z,2.15
2023-01-19T05:36:22.273Z,2.12
2023-01-19T05:39:26.126Z,2.05
2023-01-19T05:42:30.347Z,2.02
2023-01-19T05:45:34.706Z,2.06
2023-01-19T05:48:38.045Z,2.04
2023-01-19T05:51:45.385Z,2.04
2023-01-19T05:54:48.947Z,1.99
2023-01-19T05:57:51.515Z,1.99
2023-01-19T06:00:54.854Z,1.94
2023-01-19T06:03:57.707Z,1.92
2023-01-19T06:07:00.232Z,1.95
2023-01-19T06:10:03.055Z,1.93
2023-01-19T06:13:06.067Z,1.87
2023-01-19T06:16:09.957Z,1.92
2023-01-19T06:19:12.816Z,1.85
2023-01-19T06:22:16.845Z,1.93
2023-01-19T06:25:19.594Z,1.86
2023-01-19T06:28:22.761Z,1.70
2023-01-19T06:31:25.383Z,1.72
2023-01-19T06:34:29.165Z,1.72
2023-01-19T06:37:31.844Z,1.75
2023-01-19T06:40:34.647Z,1.83
2023-01-19T06:43:37.352Z,1.84
2023-01-19T06:46:40.361Z,1.82
2023-01-19T06:49:43.322Z,1.70
2023-01-19T06:52:46.307Z,1.70
2023-01-19T06:55:48.989Z,1.84
2023-01-19T06:58:53.369Z,1.67
2023-01-19T07:01:59.205Z,1.88
2023-01-19T07:05:02.466Z,1.80
2023-01-19T07:08:05.453Z,1.86
2023-01-19T07:11:25.674Z,1.92
2023-01-19T07:14:34.270Z,1.93
2023-01-19T07:17:37.620Z,1.94
2023-01-19T07:20:40.663Z,1.97
2023-01-19T07:23:43.847Z,1.94
2023-01-19T07:26:46.462Z,1.90
2023-01-19T07:29:49.491Z,1.91
2023-01-19T07:32:52.137Z,1.94
2023-01-19T07:35:55.136Z,1.97
2023-01-19T07:38:58.123Z,1.97
2023-01-19T07:42:01.476Z,1.90
2023-01-19T07:45:07.821Z,1.87
2023-01-19T07:48:10.718Z,1.82
2023-01-19T07:51:18.003Z,1.84
2023-01-19T07:54:21.065Z,1.74
2023-01-19T07:57:24.319Z,1.81
2023-01-19T08:00:28.055Z,1.82
2023-01-19T08:03:31.316Z,1.78
2023-01-19T08:06:35.613Z,1.79
2023-01-19T08:09:38.622Z,1.82
2023-01-19T08:12:42.061Z,1.89
2023-01-19T08:15:47.837Z,1.84
2023-01-19T08:18:50.893Z,1.86
2023-01-19T08:21:54.308Z,1.85
2023-01-19T08:24:56.951Z,1.94
2023-01-19T08:28:01.043Z,1.93
2023-01-19T08:31:18.710Z,1.96
2023-01-19T08:34:23.395Z,2.01
2023-01-19T08:37:26.039Z,2.03
2023-01-19T08:40:30.132Z,2.09
2023-01-19T08:43:34.654Z,2.08
2023-01-19T08:46:38.350Z,2.07
2023-01-19T08:49:41.393Z,2.10
2023-01-19T08:52:44.303Z,2.14
2023-01-19T08:55:47.421Z,2.24
2023-01-19T08:59:03.459Z,2.23
2023-01-19T09:02:12.605Z,2.24
2023-01-19T09:05:17.463Z,2.28
2023-01-19T09:08:20.368Z,2.36
2023-01-19T09:11:23.408Z,2.41
2023-01-19T09:14:26.312Z,2.39
2023-01-19T09:17:29.834Z,2.39
2023-01-19T09:20:34.721Z,2.51
2023-01-19T09:23:38.289Z,2.41
2023-01-19T09:26:41.063Z,2.52
2023-01-19T09:29:52.291Z,2.32
2023-01-19T09:32:55.012Z,2.51
2023-01-19T09:35:58.041Z,2.56
2023-01-19T09:39:00.757Z,2.56
2023-01-19T09:42:17.325Z,2.65
2023-01-19T09:45:29.616Z,2.67
2023-01-19T09:48:48.925Z,2.76
2023-01-19T09:51:51.920Z,2.75
2023-01-19T09:54:57.675Z,2.72
2023-01-19T09:58:00.516Z,2.68
2023-01-19T10:01:21.786Z,2.74
2023-01-19T10:04:41.383Z,2.76
2023-01-19T10:08:06.193Z,2.74
2023-01-19T10:11:22.962Z,2.79
2023-01-19T10:14:55.854Z,2.78
2023-01-19T10:18:17.256Z,2.84
2023-01-19T10:21:32.247Z,2.87
2023-01-19T10:24:42.551Z,2.80
2023-01-19T10:27:46.475Z,2.81
2023-01-19T10:30:50.519Z,2.80
2023-01-19T10:33:54.277Z,2.71
2023-01-19T10:37:04.478Z,2.81
2023-01-19T10:40:10.076Z,2.80
2023-01-19T10:43:36.141Z,2.89
2023-01-19T10:46:44.831Z,2.88
2023-01-19T10:49:48.779Z,2.88
2023-01-19T10:52:53.414Z,2.88
2023-01-19T10:56:21.776Z,2.86
2023-01-19T10:59:52.562Z,2.72
2023-01-19T11:02:55.756Z,2.92
2023-01-19T11:06:13.917Z,2.88
2023-01-19T11:09:21.402Z,2.93
2023-01-19T11:12:24.410Z,2.92
2023-01-19T11:15:42.392Z,2.98
2023-01-19T11:18:47.227Z,3.01
2023-01-19T11:21:50.373Z,3.05
2023-01-19T11:24:53.625Z,2.98
2023-01-19T11:27:56.750Z,2.96
2023-01-19T11:31:01.497Z,2.98
2023-01-19T11:34:14.808Z,2.90
2023-01-19T11:37:20.111Z,3.04
2023-01-19T11:40:23.087Z,3.07
2023-01-19T11:43:39.709Z,3.03
2023-01-19T11:46:55.096Z,2.99
2023-01-19T11:50:11.843Z,3.03
2023-01-19T11:53:19.332Z,2.96
2023-01-19T11:56:29.025Z,2.96
2023-01-19T11:59:32.087Z,2.87
2023-01-19T12:02:44.005Z,2.91
2023-01-19T12:05:49.753Z,2.92
2023-01-19T12:09:00.759Z,2.92
2023-01-19T12:12:08.127Z,2.75
2023-01-19T12:15:32.238Z,2.86
2023-01-19T12:18:52.554Z,2.80
2023-01-19T12:21:56.140Z,2.82
2023-01-19T12:25:08.800Z,2.81
2023-01-19T12:28:14.220Z,2.85
2023-01-19T12:31:19.780Z,2.75
2023-01-19T12:34:25.964Z,2.76
2023-01-19T12:37:28.973Z,2.77
2023-01-19T12:40:35.309Z,2.77
2023-01-19T12:43:38.342Z,2.73
2023-01-19T12:46:50.305Z,2.74
2023-01-19T12:49:56.885Z,2.73
2023-01-19T12:53:02.790Z,2.74
2023-01-19T12:56:08.899Z,2.75
2023-01-19T12:59:25.994Z,2.73
2023-01-19T13:02:28.818Z,2.67
2023-01-19T13:05:32.836Z,2.71
2023-01-19T13:08:57.084Z,2.73
2023-01-19T13:12:13.785Z,2.65
2023-01-19T13:15:36.119Z,2.70
2023-01-19T13:18:41.235Z,2.66
2023-01-19T13:21:47.510Z,2.69
2023-01-19T13:25:13.503Z,2.66
2023-01-19T13:28:18.392Z,2.59
2023-01-19T13:31:22.333Z,2.70
2023-01-19T13:34:26.565Z,2.69
2023-01-19T13:40:47.626Z,2.68
2023-01-19T13:43:59.105Z,2.68
2023-01-19T13:47:04.953Z,2.75
2023-01-19T13:50:19.563Z,2.76
2023-01-19T13:53:24.266Z,2.68
2023-01-19T13:56:28.575Z,2.68
2023-01-19T13:59:31.953Z,2.67
2023-01-19T14:02:34.679Z,2.66
2023-01-19T14:05:39.587Z,2.65
2023-01-19T14:08:42.415Z,2.64
2023-01-19T14:11:48.268Z,2.58
2023-01-19T14:14:50.816Z,2.59
2023-01-19T14:18:33.546Z,2.54
2023-01-19T14:21:44.544Z,2.53
2023-01-19T14:24:47.493Z,2.56
2023-01-19T14:27:50.123Z,2.59
2023-01-19T14:31:00.473Z,2.51
2023-01-19T14:34:03.389Z,2.63
2023-01-19T14:37:17.633Z,2.53
2023-01-19T14:40:24.599Z,2.50
2023-01-19T14:43:29.856Z,2.43
2023-01-19T14:46:32.519Z,2.49
2023-01-19T14:49:38.610Z,2.43
2023-01-19T14:52:41.982Z,2.28
2023-01-19T14:55:48.535Z,2.30
2023-01-19T14:58:51.213Z,2.34
2023-01-19T15:01:54.333Z,2.33
2023-01-19T15:04:57.931Z,2.20
2023-01-19T15:08:02.242Z,2.22
2023-01-19T15:11:21.384Z,2.20
2023-01-19T15:14:24.276Z,2.30
2023-01-19T15:17:26.853Z,2.07
2023-01-19T15:20:30.073Z,2.18
2023-01-19T15:23:33.176Z,2.16
2023-01-19T15:26:37.827Z,2.05
2023-01-19T15:29:40.505Z,2.13
2023-01-19T15:32:44.354Z,2.14
2023-01-19T15:35:50.082Z,2.03
2023-01-19T15:38:53.320Z,2.11
2023-01-19T15:41:55.932Z,2.11
2023-01-19T15:44:59.101Z,2.07
2023-01-19T15:48:06.526Z,2.07
2023-01-19T15:51:14.396Z,2.03
2023-01-19T15:54:17.033Z,1.95
2023-01-19T15:57:20.157Z,2.02
2023-01-19T16:00:23.669Z,1.95
2023-01-19T16:03:26.571Z,1.98
2023-01-19T16:06:30.366Z,2.01
2023-01-19T16:09:40.438Z,1.97
2023-01-19T16:12:47.781Z,1.82
2023-01-19T16:15:50.694Z,1.85
2023-01-19T16:18:53.477Z,1.98
2023-01-19T16:21:56.549Z,1.91
2023-01-19T16:24:59.251Z,1.86
2023-01-19T16:28:02.231Z,1.81
2023-01-19T16:31:04.915Z,1.79
2023-01-19T16:34:08.502Z,1.68
2023-01-19T16:37:11.913Z,1.70
2023-01-19T16:40:15.337Z,1.77
2023-01-19T16:43:18.722Z,1.84
2023-01-19T16:46:24.380Z,1.80
2023-01-19T16:49:28.513Z,1.73
2023-01-19T16:52:31.891Z,1.78
2023-01-19T16:55:34.581Z,1.71
2023-01-19T16:58:38.552Z,1.66
2023-01-19T17:01:42.284Z,1.42
2023-01-19T17:04:45.693Z,1.64
2023-01-19T17:07:48.539Z,1.70
2023-01-19T17:10:51.415Z,1.70
2023-01-19T17:14:00.289Z,1.70
2023-01-19T17:17:04.559Z,1.66
2023-01-19T17:20:08.107Z,1.71
2023-01-19T17:23:11.004Z,1.65
2023-01-19T17:26:14.433Z,1.67
2023-01-19T17:29:18.102Z,1.56
2023-01-19T17:32:20.907Z,1.48
2023-01-19T17:35:23.785Z,1.51
2023-01-19T17:38:28.358Z,1.53
2023-01-19T17:41:33.316Z,1.55
2023-01-19T17:44:36.221Z,1.50
2023-01-19T17:47:39.122Z,1.49
2023-01-19T17:50:41.855Z,1.41
2023-01-19T17:53:44.841Z,1.40
2023-01-19T17:56:47.594Z,1.33
2023-01-19T17:59:50.883Z,1.21
2023-01-19T18:02:53.770Z,1.19
2023-01-19T18:05:56.991Z,1.08
2023-01-19T18:09:00.084Z,0.91
2023-01-19T18:12:03.436Z,0.81
2023-01-19T18:15:07.327Z,0.86
2023-01-19T18:18:10.393Z,0.74
2023-01-19T18:21:14.140Z,0.81
2023-01-19T18:24:17.239Z,0.73
2023-01-19T18:27:21.932Z,0.74
2023-01-19T18:30:25.028Z,0.69
2023-01-19T18:33:28.146Z,0.60
2023-01-19T18:36:34.369Z,0.53
2023-01-19T18:39:37.021Z,0.44
2023-01-19T18:42:40.725Z,0.39
2023-01-19T18:45:45.874Z,0.40
2023-01-19T18:48:49.076Z,0.32
2023-01-19T18:51:51.918Z,0.18
2023-01-19T18:54:55.032Z,0.04
2023-01-19T18:57:57.930Z,-0.04
2023-01-19T19:01:01.751Z,-0.14
2023-01-19T19:04:06.073Z,-0.32
2023-01-19T19:07:09.160Z,-0.43
2023-01-19T19:10:12.551Z,-0.47
2023-01-19T19:13:16.932Z,-0.39
2023-01-19T19:16:20.475Z,-0.13
2023-01-19T19:19:23.499Z,-0.20
2023-01-19T19:22:26.413Z,-0.34
2023-01-19T19:25:29.673Z,-0.37
2023-01-19T19:28:33.345Z,-0.36
2023-01-19T19:31:37.172Z,-0.42
2023-01-19T19:34:40.250Z,-0.49
2023-01-19T19:37:43.875Z,-0.39
2023-01-19T19:40:46.776Z,-0.41
2023-01-19T19:43:50.442Z,-0.32
2023-01-19T19:46:53.223Z,-0.24
2023-01-19T19:49:56.369Z,-0.24
2023-01-19T19:53:00.316Z,-0.19
2023-01-19T19:56:05.964Z,-0.16
2023-01-19T19:59:08.811Z,-0.26
2023-01-19T20:02:12.971Z,-0.21
2023-01-19T20:05:16.219Z,-0.16
2023-01-19T20:08:19.129Z,-0.17
2023-01-19T20:11:24.554Z,-0.19
2023-01-19T20:14:27.423Z,-0.28
2023-01-19T20:17:30.676Z,-0.32
2023-01-19T20:20:34.589Z,-0.34
2023-01-19T20:23:38.020Z,-0.35
2023-01-19T20:26:43.211Z,-0.34
2023-01-19T20:29:51.486Z,-0.39
2023-01-19T20:32:55.707Z,-0.45
2023-01-19T20:35:58.712Z,-0.57
2023-01-19T20:39:08.399Z,-0.49
2023-01-19T20:42:13.678Z,-0.36
2023-01-19T20:45:16.585Z,-0.24
2023-01-19T20:48:19.854Z,-0.27
2023-01-19T20:51:23.128Z,-0.30
2023-01-19T20:54:30.187Z,-0.40
2023-01-19T20:57:34.198Z,-0.34
2023-01-19T21:00:37.222Z,-0.32
2023-01-19T21:03:41.893Z,-0.28
2023-01-19T21:06:44.952Z,-0.42
2023-01-19T21:09:47.516Z,-0.51
2023-01-19T21:12:50.616Z,-0.57
2023-01-19T21:15:53.517Z,-0.78
2023-01-19T21:18:56.674Z,-0.84
2023-01-19T21:21:59.675Z,-0.87
2023-01-19T21:25:02.544Z,-0.65
2023-01-19T21:28:05.357Z,-0.75
2023-01-19T21:31:12.861Z,-0.79
2023-01-19T21:34:15.530Z,-0.93
2023-01-19T21:37:18.372Z,-0.83
2023-01-19T21:40:20.865Z,-0.83
2023-01-19T21:43:24.962Z,-0.86
2023-01-19T21:46:33.100Z,-0.88
2023-01-19T21:49:36.075Z,-0.84
2023-01-19T21:52:40.116Z,-0.88
2023-01-19T21:55:45.631Z,-0.81
2023-01-19T21:58:48.190Z,-0.91
2023-01-19T22:01:51.251Z,-0.82
2023-01-19T22:04:54.235Z,-0.86
2023-01-19T22:07:56.823Z,-1.05
2023-01-19T22:11:06.732Z,-1.11
2023-01-19T22:14:10.736Z,-1.12
2023-01-19T22:17:13.681Z,-1.07
2023-01-19T22:20:16.482Z,-0.92
2023-01-19T22:23:19.276Z,-1.06
2023-01-19T22:26:22.350Z,-1.16
2023-01-19T22:29:25.268Z,-1.19
2023-01-19T22:32:27.927Z,-1.20
2023-01-19T22:35:30.832Z,-1.18
2023-01-19T22:38:33.397Z,-1.09
2023-01-19T22:41:44.929Z,-1.05
2023-01-19T22:44:47.503Z,-1.08
2023-01-19T22:47:50.304Z,-1.12
2023-01-19T22:50:56.383Z,-1.11
2023-01-19T22:53:59.383Z,-1.14
2023-01-19T22:57:01.986Z,-1.26
2023-01-19T23:00:07.172Z,-1.29
2023-01-19T23:03:09.775Z,-1.33
2023-01-19T23:06:20.763Z,-1.41
2023-01-19T23:09:23.516Z,-1.47
2023-01-19T23:12:26.284Z,-1.52
2023-01-19T23:15:28.906Z,-1.52
2023-01-19T23:18:32.253Z,-1.45
2023-01-19T23:21:34.968Z,-1.45
2023-01-19T23:24:37.872Z,-1.52
2023-01-19T23:27:40.388Z,-1.64
2023-01-19T23:30:43.406Z,-1.74
2023-01-19T23:33:46.214Z,-1.82
2023-01-19T23:36:49.015Z,-1.83
2023-01-19T23:39:51.603Z,-1.77
2023-01-19T23:42:54.894Z,-1.63
2023-01-19T23:46:02.838Z,-1.49
2023-01-19T23:49:06.605Z,-1.54
2023-01-19T23:52:09.161Z,-1.43
2023-01-19T23:55:12.227Z,-1.39
2023-01-19T23:58:15.105Z,-1.42
